sensor_id;sensor_type;location;lat;lon;timestamp;P1;durP1;ratioP1;P2;durP2;ratioP2
7977;SDS011;4034;48.004;10.902;2023-03-03T00:01:50;48.50;;;27.50;;
7977;SDS011;4034;48.004;10.902;2023-03-03T00:04:16;54.67;;;28.03;;
7977;SDS011;4034;48.004;10.902;2023-03-03T00:06:43;44.37;;;26.37;;
7977;SDS011;4034;48.004;10.902;2023-03-03T00:09:09;49.00;;;26.90;;
7977;SDS011;4034;48.004;10.902;2023-03-03T00:11:35;50.80;;;28.50;;
7977;SDS011;4034;48.004;10.902;2023-03-03T00:14:01;46.40;;;26.47;;
7977;SDS011;4034;48.004;10.902;2023-03-03T00:16:28;48.20;;;25.93;;
7977;SDS011;4034;48.004;10.902;2023-03-03T00:18:55;51.07;;;28.27;;
7977;SDS011;4034;48.004;10.902;2023-03-03T00:21:22;44.07;;;26.00;;
7977;SDS011;4034;48.004;10.902;2023-03-03T00:23:53;67.30;;;26.20;;
7977;SDS011;4034;48.004;10.902;2023-03-03T00:28:49;47.40;;;27.07;;
7977;SDS011;4034;48.004;10.902;2023-03-03T00:31:16;53.47;;;26.40;;
7977;SDS011;4034;48.004;10.902;2023-03-03T00:33:45;45.40;;;23.87;;
7977;SDS011;4034;48.004;10.902;2023-03-03T00:38:43;45.40;;;26.53;;
7977;SDS011;4034;48.004;10.902;2023-03-03T00:41:24;45.23;;;24.53;;
7977;SDS011;4034;48.004;10.902;2023-03-03T00:43:50;46.13;;;24.57;;
7977;SDS011;4034;48.004;10.902;2023-03-03T00:46:17;55.27;;;25.07;;
7977;SDS011;4034;48.004;10.902;2023-03-03T00:48:44;47.23;;;25.37;;
7977;SDS011;4034;48.004;10.902;2023-03-03T00:53:45;44.93;;;25.90;;
7977;SDS011;4034;48.004;10.902;2023-03-03T00:56:12;61.67;;;26.87;;
7977;SDS011;4034;48.004;10.902;2023-03-03T00:58:38;51.37;;;26.43;;
7977;SDS011;4034;48.004;10.902;2023-03-03T01:01:04;44.13;;;25.27;;
7977;SDS011;4034;48.004;10.902;2023-03-03T01:03:30;45.80;;;26.57;;
7977;SDS011;4034;48.004;10.902;2023-03-03T01:05:56;49.07;;;26.80;;
7977;SDS011;4034;48.004;10.902;2023-03-03T01:08:22;43.33;;;26.20;;
7977;SDS011;4034;48.004;10.902;2023-03-03T01:10:49;49.60;;;27.20;;
7977;SDS011;4034;48.004;10.902;2023-03-03T01:13:16;46.30;;;26.47;;
7977;SDS011;4034;48.004;10.902;2023-03-03T01:15:42;49.17;;;27.87;;
7977;SDS011;4034;48.004;10.902;2023-03-03T01:18:09;51.90;;;26.77;;
7977;SDS011;4034;48.004;10.902;2023-03-03T01:20:36;50.13;;;27.33;;
7977;SDS011;4034;48.004;10.902;2023-03-03T01:23:02;49.53;;;28.07;;
7977;SDS011;4034;48.004;10.902;2023-03-03T01:25:28;56.87;;;27.80;;
7977;SDS011;4034;48.004;10.902;2023-03-03T01:27:54;53.10;;;28.60;;
7977;SDS011;4034;48.004;10.902;2023-03-03T01:30:20;41.40;;;25.70;;
7977;SDS011;4034;48.004;10.902;2023-03-03T01:32:46;53.53;;;27.20;;
7977;SDS011;4034;48.004;10.902;2023-03-03T01:35:12;48.80;;;26.03;;
7977;SDS011;4034;48.004;10.902;2023-03-03T01:37:38;53.53;;;27.43;;
7977;SDS011;4034;48.004;10.902;2023-03-03T01:40:05;48.80;;;26.63;;
7977;SDS011;4034;48.004;10.902;2023-03-03T01:42:31;44.77;;;26.97;;
7977;SDS011;4034;48.004;10.902;2023-03-03T01:47:47;43.03;;;25.00;;
7977;SDS011;4034;48.004;10.902;2023-03-03T01:50:14;54.23;;;25.60;;
7977;SDS011;4034;48.004;10.902;2023-03-03T01:52:42;49.70;;;27.33;;
7977;SDS011;4034;48.004;10.902;2023-03-03T01:55:11;43.83;;;25.27;;
7977;SDS011;4034;48.004;10.902;2023-03-03T01:57:39;47.60;;;26.37;;
7977;SDS011;4034;48.004;10.902;2023-03-03T02:00:06;44.70;;;26.63;;
7977;SDS011;4034;48.004;10.902;2023-03-03T02:02:32;42.80;;;24.60;;
7977;SDS011;4034;48.004;10.902;2023-03-03T02:04:59;47.60;;;26.37;;
7977;SDS011;4034;48.004;10.902;2023-03-03T02:07:25;51.17;;;26.67;;
7977;SDS011;4034;48.004;10.902;2023-03-03T02:09:57;46.93;;;26.23;;
7977;SDS011;4034;48.004;10.902;2023-03-03T02:12:29;57.57;;;26.43;;
7977;SDS011;4034;48.004;10.902;2023-03-03T02:14:56;48.57;;;24.80;;
7977;SDS011;4034;48.004;10.902;2023-03-03T02:17:22;52.30;;;26.30;;
7977;SDS011;4034;48.004;10.902;2023-03-03T02:19:55;46.33;;;27.60;;
7977;SDS011;4034;48.004;10.902;2023-03-03T02:22:30;46.60;;;26.33;;
7977;SDS011;4034;48.004;10.902;2023-03-03T02:24:59;46.37;;;26.50;;
7977;SDS011;4034;48.004;10.902;2023-03-03T02:27:26;45.93;;;24.17;;
7977;SDS011;4034;48.004;10.902;2023-03-03T02:29:52;51.17;;;28.73;;
7977;SDS011;4034;48.004;10.902;2023-03-03T02:32:18;47.23;;;25.80;;
7977;SDS011;4034;48.004;10.902;2023-03-03T02:34:46;48.40;;;25.70;;
7977;SDS011;4034;48.004;10.902;2023-03-03T02:37:12;48.80;;;27.07;;
7977;SDS011;4034;48.004;10.902;2023-03-03T02:39:38;49.63;;;26.30;;
7977;SDS011;4034;48.004;10.902;2023-03-03T02:44:39;54.80;;;28.07;;
7977;SDS011;4034;48.004;10.902;2023-03-03T02:47:05;57.23;;;29.40;;
7977;SDS011;4034;48.004;10.902;2023-03-03T02:49:33;58.13;;;28.93;;
7977;SDS011;4034;48.004;10.902;2023-03-03T02:52:00;51.77;;;27.43;;
7977;SDS011;4034;48.004;10.902;2023-03-03T02:54:27;57.37;;;28.07;;
7977;SDS011;4034;48.004;10.902;2023-03-03T02:56:54;48.63;;;24.47;;
7977;SDS011;4034;48.004;10.902;2023-03-03T02:59:20;44.80;;;24.13;;
7977;SDS011;4034;48.004;10.902;2023-03-03T03:01:46;46.00;;;26.67;;
7977;SDS011;4034;48.004;10.902;2023-03-03T03:04:16;50.07;;;26.67;;
7977;SDS011;4034;48.004;10.902;2023-03-03T03:06:43;44.17;;;25.30;;
7977;SDS011;4034;48.004;10.902;2023-03-03T03:09:10;49.77;;;26.80;;
7977;SDS011;4034;48.004;10.902;2023-03-03T03:11:36;54.63;;;28.17;;
7977;SDS011;4034;48.004;10.902;2023-03-03T03:14:05;51.07;;;26.93;;
7977;SDS011;4034;48.004;10.902;2023-03-03T03:16:32;54.87;;;27.73;;
7977;SDS011;4034;48.004;10.902;2023-03-03T03:18:58;50.03;;;27.47;;
7977;SDS011;4034;48.004;10.902;2023-03-03T03:21:24;51.73;;;27.97;;
7977;SDS011;4034;48.004;10.902;2023-03-03T03:23:50;55.17;;;27.97;;
7977;SDS011;4034;48.004;10.902;2023-03-03T03:26:16;49.87;;;26.77;;
7977;SDS011;4034;48.004;10.902;2023-03-03T03:28:45;52.53;;;27.03;;
7977;SDS011;4034;48.004;10.902;2023-03-03T03:31:11;46.03;;;26.63;;
7977;SDS011;4034;48.004;10.902;2023-03-03T03:33:37;48.23;;;24.93;;
7977;SDS011;4034;48.004;10.902;2023-03-03T03:36:03;49.37;;;25.70;;
7977;SDS011;4034;48.004;10.902;2023-03-03T03:38:30;45.53;;;26.93;;
7977;SDS011;4034;48.004;10.902;2023-03-03T03:40:57;49.10;;;26.00;;
7977;SDS011;4034;48.004;10.902;2023-03-03T03:43:23;42.60;;;26.00;;
7977;SDS011;4034;48.004;10.902;2023-03-03T03:45:49;45.83;;;27.17;;
7977;SDS011;4034;48.004;10.902;2023-03-03T03:48:15;42.33;;;25.23;;
7977;SDS011;4034;48.004;10.902;2023-03-03T03:50:43;51.33;;;25.80;;
7977;SDS011;4034;48.004;10.902;2023-03-03T03:53:09;48.03;;;25.50;;
7977;SDS011;4034;48.004;10.902;2023-03-03T03:55:35;48.53;;;25.27;;
7977;SDS011;4034;48.004;10.902;2023-03-03T03:58:01;47.30;;;25.20;;
7977;SDS011;4034;48.004;10.902;2023-03-03T04:00:27;48.87;;;27.70;;
7977;SDS011;4034;48.004;10.902;2023-03-03T04:02:53;39.30;;;24.03;;
7977;SDS011;4034;48.004;10.902;2023-03-03T04:05:19;49.57;;;26.77;;
7977;SDS011;4034;48.004;10.902;2023-03-03T04:07:45;46.37;;;24.93;;
7977;SDS011;4034;48.004;10.902;2023-03-03T04:10:11;45.97;;;24.43;;
7977;SDS011;4034;48.004;10.902;2023-03-03T04:12:37;41.97;;;24.77;;
7977;SDS011;4034;48.004;10.902;2023-03-03T04:15:07;42.80;;;24.77;;
7977;SDS011;4034;48.004;10.902;2023-03-03T04:17:34;38.57;;;23.30;;
7977;SDS011;4034;48.004;10.902;2023-03-03T04:20:00;50.03;;;24.93;;
7977;SDS011;4034;48.004;10.902;2023-03-03T04:22:27;42.67;;;24.23;;
7977;SDS011;4034;48.004;10.902;2023-03-03T04:24:56;40.73;;;24.03;;
7977;SDS011;4034;48.004;10.902;2023-03-03T04:27:22;43.87;;;24.87;;
7977;SDS011;4034;48.004;10.902;2023-03-03T04:29:48;50.93;;;26.97;;
7977;SDS011;4034;48.004;10.902;2023-03-03T04:32:14;42.27;;;24.30;;
7977;SDS011;4034;48.004;10.902;2023-03-03T04:34:42;45.93;;;26.17;;
7977;SDS011;4034;48.004;10.902;2023-03-03T04:37:08;50.63;;;27.07;;
7977;SDS011;4034;48.004;10.902;2023-03-03T04:39:34;42.63;;;24.50;;
7977;SDS011;4034;48.004;10.902;2023-03-03T04:42:00;41.37;;;24.57;;
7977;SDS011;4034;48.004;10.902;2023-03-03T04:44:26;44.17;;;24.30;;
7977;SDS011;4034;48.004;10.902;2023-03-03T04:46:52;47.17;;;24.67;;
7977;SDS011;4034;48.004;10.902;2023-03-03T04:49:18;40.17;;;24.47;;
7977;SDS011;4034;48.004;10.902;2023-03-03T04:51:44;40.63;;;23.90;;
7977;SDS011;4034;48.004;10.902;2023-03-03T04:54:10;41.80;;;23.93;;
7977;SDS011;4034;48.004;10.902;2023-03-03T04:56:36;42.97;;;24.83;;
7977;SDS011;4034;48.004;10.902;2023-03-03T04:59:02;44.23;;;23.63;;
7977;SDS011;4034;48.004;10.902;2023-03-03T05:01:28;40.20;;;23.77;;
7977;SDS011;4034;48.004;10.902;2023-03-03T05:03:54;40.63;;;24.50;;
7977;SDS011;4034;48.004;10.902;2023-03-03T05:06:20;46.13;;;25.43;;
7977;SDS011;4034;48.004;10.902;2023-03-03T05:08:46;45.30;;;26.57;;
7977;SDS011;4034;48.004;10.902;2023-03-03T05:11:12;47.37;;;27.33;;
7977;SDS011;4034;48.004;10.902;2023-03-03T05:13:38;43.83;;;26.20;;
7977;SDS011;4034;48.004;10.902;2023-03-03T05:16:05;50.23;;;24.77;;
7977;SDS011;4034;48.004;10.902;2023-03-03T05:18:31;40.23;;;25.13;;
7977;SDS011;4034;48.004;10.902;2023-03-03T05:20:57;38.90;;;24.37;;
7977;SDS011;4034;48.004;10.902;2023-03-03T05:23:23;40.87;;;24.33;;
7977;SDS011;4034;48.004;10.902;2023-03-03T05:25:50;39.17;;;23.33;;
7977;SDS011;4034;48.004;10.902;2023-03-03T05:28:16;42.77;;;24.83;;
7977;SDS011;4034;48.004;10.902;2023-03-03T05:30:42;47.63;;;26.07;;
7977;SDS011;4034;48.004;10.902;2023-03-03T05:33:09;40.67;;;23.93;;
7977;SDS011;4034;48.004;10.902;2023-03-03T05:35:37;47.33;;;24.63;;
7977;SDS011;4034;48.004;10.902;2023-03-03T05:38:03;44.97;;;25.97;;
7977;SDS011;4034;48.004;10.902;2023-03-03T05:40:29;43.27;;;25.37;;
7977;SDS011;4034;48.004;10.902;2023-03-03T05:42:55;41.60;;;23.07;;
7977;SDS011;4034;48.004;10.902;2023-03-03T05:45:22;46.10;;;25.77;;
7977;SDS011;4034;48.004;10.902;2023-03-03T05:47:51;46.87;;;25.00;;
7977;SDS011;4034;48.004;10.902;2023-03-03T05:50:18;52.60;;;25.87;;
7977;SDS011;4034;48.004;10.902;2023-03-03T05:52:48;50.87;;;27.10;;
7977;SDS011;4034;48.004;10.902;2023-03-03T05:55:14;56.37;;;30.00;;
7977;SDS011;4034;48.004;10.902;2023-03-03T05:57:40;52.93;;;27.63;;
7977;SDS011;4034;48.004;10.902;2023-03-03T06:00:06;48.93;;;26.93;;
7977;SDS011;4034;48.004;10.902;2023-03-03T06:02:33;48.80;;;25.93;;
7977;SDS011;4034;48.004;10.902;2023-03-03T06:04:59;50.77;;;26.70;;
7977;SDS011;4034;48.004;10.902;2023-03-03T06:07:25;47.37;;;26.80;;
7977;SDS011;4034;48.004;10.902;2023-03-03T06:09:51;39.77;;;24.23;;
7977;SDS011;4034;48.004;10.902;2023-03-03T06:12:17;51.73;;;24.97;;
7977;SDS011;4034;48.004;10.902;2023-03-03T06:14:43;41.53;;;24.43;;
7977;SDS011;4034;48.004;10.902;2023-03-03T06:17:09;42.07;;;23.60;;
7977;SDS011;4034;48.004;10.902;2023-03-03T06:19:35;50.97;;;26.37;;
7977;SDS011;4034;48.004;10.902;2023-03-03T06:22:02;40.23;;;23.30;;
7977;SDS011;4034;48.004;10.902;2023-03-03T06:24:28;40.60;;;23.43;;
7977;SDS011;4034;48.004;10.902;2023-03-03T06:26:58;39.47;;;24.03;;
7977;SDS011;4034;48.004;10.902;2023-03-03T06:29:25;45.77;;;27.57;;
7977;SDS011;4034;48.004;10.902;2023-03-03T06:31:51;57.73;;;29.67;;
7977;SDS011;4034;48.004;10.902;2023-03-03T06:34:17;49.20;;;26.77;;
7977;SDS011;4034;48.004;10.902;2023-03-03T06:36:43;42.17;;;25.27;;
7977;SDS011;4034;48.004;10.902;2023-03-03T06:39:09;39.83;;;23.20;;
7977;SDS011;4034;48.004;10.902;2023-03-03T06:41:36;43.17;;;25.77;;
7977;SDS011;4034;48.004;10.902;2023-03-03T06:44:02;44.83;;;25.43;;
7977;SDS011;4034;48.004;10.902;2023-03-03T06:46:28;43.87;;;24.97;;
7977;SDS011;4034;48.004;10.902;2023-03-03T06:48:54;40.83;;;24.53;;
7977;SDS011;4034;48.004;10.902;2023-03-03T06:51:24;47.40;;;25.87;;
7977;SDS011;4034;48.004;10.902;2023-03-03T06:53:54;46.30;;;26.23;;
7977;SDS011;4034;48.004;10.902;2023-03-03T06:56:21;49.30;;;26.70;;
7977;SDS011;4034;48.004;10.902;2023-03-03T06:58:48;46.90;;;26.97;;
7977;SDS011;4034;48.004;10.902;2023-03-03T07:01:15;62.73;;;28.63;;
7977;SDS011;4034;48.004;10.902;2023-03-03T07:03:41;53.47;;;28.97;;
7977;SDS011;4034;48.004;10.902;2023-03-03T07:06:13;57.83;;;28.63;;
7977;SDS011;4034;48.004;10.902;2023-03-03T07:08:41;55.93;;;29.23;;
7977;SDS011;4034;48.004;10.902;2023-03-03T07:11:07;50.63;;;28.90;;
7977;SDS011;4034;48.004;10.902;2023-03-03T07:13:38;52.33;;;30.73;;
7977;SDS011;4034;48.004;10.902;2023-03-03T07:16:09;58.37;;;32.03;;
7977;SDS011;4034;48.004;10.902;2023-03-03T07:21:44;50.37;;;29.40;;
7977;SDS011;4034;48.004;10.902;2023-03-03T07:23:51;58.97;;;30.17;;
7977;SDS011;4034;48.004;10.902;2023-03-03T07:26:28;56.70;;;30.77;;
7977;SDS011;4034;48.004;10.902;2023-03-03T07:31:55;63.03;;;32.50;;
7977;SDS011;4034;48.004;10.902;2023-03-03T07:34:23;73.53;;;34.67;;
7977;SDS011;4034;48.004;10.902;2023-03-03T07:36:54;57.70;;;30.13;;
7977;SDS011;4034;48.004;10.902;2023-03-03T07:39:36;63.57;;;31.97;;
7977;SDS011;4034;48.004;10.902;2023-03-03T07:44:51;58.07;;;31.63;;
7977;SDS011;4034;48.004;10.902;2023-03-03T07:47:22;62.07;;;33.83;;
7977;SDS011;4034;48.004;10.902;2023-03-03T07:49:51;60.77;;;32.47;;
7977;SDS011;4034;48.004;10.902;2023-03-03T07:52:28;64.93;;;32.30;;
7977;SDS011;4034;48.004;10.902;2023-03-03T07:54:57;61.80;;;30.93;;
7977;SDS011;4034;48.004;10.902;2023-03-03T07:57:28;59.23;;;32.73;;
7977;SDS011;4034;48.004;10.902;2023-03-03T08:00:01;66.00;;;32.90;;
7977;SDS011;4034;48.004;10.902;2023-03-03T08:04:56;52.47;;;29.13;;
7977;SDS011;4034;48.004;10.902;2023-03-03T08:07:22;60.50;;;30.90;;
7977;SDS011;4034;48.004;10.902;2023-03-03T08:09:48;56.67;;;31.10;;
7977;SDS011;4034;48.004;10.902;2023-03-03T08:14:44;120.03;;;55.93;;
7977;SDS011;4034;48.004;10.902;2023-03-03T08:17:13;90.47;;;43.00;;
7977;SDS011;4034;48.004;10.902;2023-03-03T08:19:42;164.43;;;76.13;;
7977;SDS011;4034;48.004;10.902;2023-03-03T08:22:09;91.90;;;45.13;;
7977;SDS011;4034;48.004;10.902;2023-03-03T08:24:36;97.67;;;42.17;;
7977;SDS011;4034;48.004;10.902;2023-03-03T08:27:02;57.63;;;32.17;;
7977;SDS011;4034;48.004;10.902;2023-03-03T08:29:28;53.30;;;31.13;;
7977;SDS011;4034;48.004;10.902;2023-03-03T08:31:54;61.83;;;30.43;;
7977;SDS011;4034;48.004;10.902;2023-03-03T08:34:20;59.37;;;31.33;;
7977;SDS011;4034;48.004;10.902;2023-03-03T08:36:46;63.20;;;33.43;;
7977;SDS011;4034;48.004;10.902;2023-03-03T08:39:13;54.13;;;30.43;;
7977;SDS011;4034;48.004;10.902;2023-03-03T08:41:39;73.20;;;33.10;;
7977;SDS011;4034;48.004;10.902;2023-03-03T08:44:08;65.17;;;34.80;;
7977;SDS011;4034;48.004;10.902;2023-03-03T08:46:33;65.50;;;33.53;;
7977;SDS011;4034;48.004;10.902;2023-03-03T08:48:59;72.70;;;33.00;;
7977;SDS011;4034;48.004;10.902;2023-03-03T08:51:26;59.13;;;30.17;;
7977;SDS011;4034;48.004;10.902;2023-03-03T08:53:52;67.27;;;32.77;;
7977;SDS011;4034;48.004;10.902;2023-03-03T08:56:18;70.27;;;33.63;;
7977;SDS011;4034;48.004;10.902;2023-03-03T08:58:44;65.20;;;33.50;;
7977;SDS011;4034;48.004;10.902;2023-03-03T09:01:12;67.17;;;32.97;;
7977;SDS011;4034;48.004;10.902;2023-03-03T09:03:39;60.33;;;29.30;;
7977;SDS011;4034;48.004;10.902;2023-03-03T09:06:05;62.73;;;33.23;;
7977;SDS011;4034;48.004;10.902;2023-03-03T09:08:31;66.57;;;32.83;;
7977;SDS011;4034;48.004;10.902;2023-03-03T09:10:57;73.83;;;31.60;;
7977;SDS011;4034;48.004;10.902;2023-03-03T09:13:27;73.47;;;35.53;;
7977;SDS011;4034;48.004;10.902;2023-03-03T09:15:53;75.67;;;37.30;;
7977;SDS011;4034;48.004;10.902;2023-03-03T09:18:36;66.80;;;30.60;;
7977;SDS011;4034;48.004;10.902;2023-03-03T09:28:42;67.40;;;33.57;;
7977;SDS011;4034;48.004;10.902;2023-03-03T09:31:16;57.93;;;33.03;;
7977;SDS011;4034;48.004;10.902;2023-03-03T09:33:46;58.60;;;32.23;;
7977;SDS011;4034;48.004;10.902;2023-03-03T09:36:28;68.17;;;35.00;;
7977;SDS011;4034;48.004;10.902;2023-03-03T09:38:55;70.10;;;32.30;;
7977;SDS011;4034;48.004;10.902;2023-03-03T09:43:54;67.90;;;33.43;;
7977;SDS011;4034;48.004;10.902;2023-03-03T09:46:29;62.93;;;33.07;;
7977;SDS011;4034;48.004;10.902;2023-03-03T09:49:03;61.67;;;33.13;;
7977;SDS011;4034;48.004;10.902;2023-03-03T09:51:44;74.97;;;40.10;;
7977;SDS011;4034;48.004;10.902;2023-03-03T09:54:14;67.87;;;36.90;;
7977;SDS011;4034;48.004;10.902;2023-03-03T09:56:44;73.30;;;32.60;;
7977;SDS011;4034;48.004;10.902;2023-03-03T10:01:42;57.20;;;34.43;;
7977;SDS011;4034;48.004;10.902;2023-03-03T10:06:47;47.43;;;30.57;;
7977;SDS011;4034;48.004;10.902;2023-03-03T10:11:56;53.63;;;30.53;;
7977;SDS011;4034;48.004;10.902;2023-03-03T10:22:18;49.63;;;29.40;;
7977;SDS011;4034;48.004;10.902;2023-03-03T10:25:07;51.50;;;28.73;;
7977;SDS011;4034;48.004;10.902;2023-03-03T10:27:47;50.67;;;29.70;;
7977;SDS011;4034;48.004;10.902;2023-03-03T10:33:20;52.00;;;29.70;;
7977;SDS011;4034;48.004;10.902;2023-03-03T10:35:56;50.17;;;30.97;;
7977;SDS011;4034;48.004;10.902;2023-03-03T10:41:02;46.67;;;28.77;;
7977;SDS011;4034;48.004;10.902;2023-03-03T10:43:49;49.13;;;31.07;;
7977;SDS011;4034;48.004;10.902;2023-03-03T10:46:24;86.00;;;45.33;;
7977;SDS011;4034;48.004;10.902;2023-03-03T10:49:06;221.73;;;86.03;;
7977;SDS011;4034;48.004;10.902;2023-03-03T10:56:51;72.87;;;45.33;;
7977;SDS011;4034;48.004;10.902;2023-03-03T11:04:28;46.40;;;30.70;;
7977;SDS011;4034;48.004;10.902;2023-03-03T11:07:13;55.77;;;32.57;;
7977;SDS011;4034;48.004;10.902;2023-03-03T11:09:46;61.40;;;32.70;;
7977;SDS011;4034;48.004;10.902;2023-03-03T11:14:58;51.67;;;31.77;;
7977;SDS011;4034;48.004;10.902;2023-03-03T11:17:38;48.20;;;29.43;;
7977;SDS011;4034;48.004;10.902;2023-03-03T11:25:45;59.83;;;32.63;;
7977;SDS011;4034;48.004;10.902;2023-03-03T11:28:24;54.50;;;31.03;;
7977;SDS011;4034;48.004;10.902;2023-03-03T11:46:06;51.37;;;30.77;;
7977;SDS011;4034;48.004;10.902;2023-03-03T11:56:22;77.83;;;43.90;;
7977;SDS011;4034;48.004;10.902;2023-03-03T12:04:40;54.17;;;33.67;;
7977;SDS011;4034;48.004;10.902;2023-03-03T12:07:22;49.43;;;33.40;;
7977;SDS011;4034;48.004;10.902;2023-03-03T12:12:40;54.87;;;30.93;;
7977;SDS011;4034;48.004;10.902;2023-03-03T12:20:32;46.53;;;30.90;;
7977;SDS011;4034;48.004;10.902;2023-03-03T12:25:45;46.53;;;32.17;;
7977;SDS011;4034;48.004;10.902;2023-03-03T12:28:20;47.37;;;30.07;;
7977;SDS011;4034;48.004;10.902;2023-03-03T12:40:54;46.40;;;30.63;;
7977;SDS011;4034;48.004;10.902;2023-03-03T12:48:31;50.60;;;31.07;;
7977;SDS011;4034;48.004;10.902;2023-03-03T12:56:39;44.77;;;30.57;;
7977;SDS011;4034;48.004;10.902;2023-03-03T12:59:11;47.43;;;29.37;;
7977;SDS011;4034;48.004;10.902;2023-03-03T13:04:49;48.93;;;28.67;;
7977;SDS011;4034;48.004;10.902;2023-03-03T13:10:06;47.63;;;30.13;;
7977;SDS011;4034;48.004;10.902;2023-03-03T13:15:27;45.03;;;30.43;;
7977;SDS011;4034;48.004;10.902;2023-03-03T13:18:06;47.37;;;30.70;;
7977;SDS011;4034;48.004;10.902;2023-03-03T13:23:23;50.47;;;31.33;;
7977;SDS011;4034;48.004;10.902;2023-03-03T13:26:39;57.07;;;35.23;;
7977;SDS011;4034;48.004;10.902;2023-03-03T13:36:56;50.23;;;29.77;;
7977;SDS011;4034;48.004;10.902;2023-03-03T13:39:25;55.50;;;31.10;;
7977;SDS011;4034;48.004;10.902;2023-03-03T13:44:26;45.57;;;30.03;;
7977;SDS011;4034;48.004;10.902;2023-03-03T13:52:23;57.23;;;34.97;;
7977;SDS011;4034;48.004;10.902;2023-03-03T14:04:04;48.87;;;32.90;;
7977;SDS011;4034;48.004;10.902;2023-03-03T14:06:30;47.93;;;30.30;;
7977;SDS011;4034;48.004;10.902;2023-03-03T14:09:18;48.43;;;31.63;;
7977;SDS011;4034;48.004;10.902;2023-03-03T14:11:58;48.47;;;30.33;;
7977;SDS011;4034;48.004;10.902;2023-03-03T14:17:02;51.13;;;31.67;;
7977;SDS011;4034;48.004;10.902;2023-03-03T14:25:01;49.43;;;31.73;;
7977;SDS011;4034;48.004;10.902;2023-03-03T14:27:33;48.33;;;30.70;;
7977;SDS011;4034;48.004;10.902;2023-03-03T14:30:19;47.10;;;30.77;;
7977;SDS011;4034;48.004;10.902;2023-03-03T14:35:50;49.33;;;29.57;;
7977;SDS011;4034;48.004;10.902;2023-03-03T14:38:18;46.07;;;30.43;;
7977;SDS011;4034;48.004;10.902;2023-03-03T14:40:45;52.47;;;31.63;;
7977;SDS011;4034;48.004;10.902;2023-03-03T14:45:49;42.87;;;29.23;;
7977;SDS011;4034;48.004;10.902;2023-03-03T14:50:44;48.07;;;29.50;;
7977;SDS011;4034;48.004;10.902;2023-03-03T14:53:14;45.87;;;28.93;;
7977;SDS011;4034;48.004;10.902;2023-03-03T14:55:42;41.83;;;28.47;;
7977;SDS011;4034;48.004;10.902;2023-03-03T15:01:08;57.03;;;31.30;;
7977;SDS011;4034;48.004;10.902;2023-03-03T15:03:34;53.37;;;31.93;;
7977;SDS011;4034;48.004;10.902;2023-03-03T15:06:09;52.67;;;32.07;;
7977;SDS011;4034;48.004;10.902;2023-03-03T15:08:38;50.07;;;31.00;;
7977;SDS011;4034;48.004;10.902;2023-03-03T15:11:12;47.67;;;31.63;;
7977;SDS011;4034;48.004;10.902;2023-03-03T15:13:42;49.43;;;30.27;;
7977;SDS011;4034;48.004;10.902;2023-03-03T15:18:35;39.67;;;28.17;;
7977;SDS011;4034;48.004;10.902;2023-03-03T15:21:16;46.50;;;29.70;;
7977;SDS011;4034;48.004;10.902;2023-03-03T15:29:01;50.87;;;30.47;;
7977;SDS011;4034;48.004;10.902;2023-03-03T15:34:14;43.03;;;30.10;;
7977;SDS011;4034;48.004;10.902;2023-03-03T15:39:17;46.63;;;31.07;;
7977;SDS011;4034;48.004;10.902;2023-03-03T15:41:56;46.10;;;30.33;;
7977;SDS011;4034;48.004;10.902;2023-03-03T15:57:05;46.83;;;30.67;;
7977;SDS011;4034;48.004;10.902;2023-03-03T16:02:22;44.77;;;28.60;;
7977;SDS011;4034;48.004;10.902;2023-03-03T16:05:06;46.37;;;29.07;;
7977;SDS011;4034;48.004;10.902;2023-03-03T16:15:35;45.20;;;29.93;;
7977;SDS011;4034;48.004;10.902;2023-03-03T16:20:47;48.30;;;31.17;;
7977;SDS011;4034;48.004;10.902;2023-03-03T16:23:30;46.67;;;30.57;;
7977;SDS011;4034;48.004;10.902;2023-03-03T16:25:59;43.03;;;30.30;;
7977;SDS011;4034;48.004;10.902;2023-03-03T16:34:21;45.73;;;29.90;;
7977;SDS011;4034;48.004;10.902;2023-03-03T16:37:06;40.73;;;25.97;;
7977;SDS011;4034;48.004;10.902;2023-03-03T16:39:40;48.53;;;29.17;;
7977;SDS011;4034;48.004;10.902;2023-03-03T16:47:10;47.27;;;28.37;;
7977;SDS011;4034;48.004;10.902;2023-03-03T16:52:24;46.30;;;29.63;;
7977;SDS011;4034;48.004;10.902;2023-03-03T16:55:02;49.60;;;29.60;;
7977;SDS011;4034;48.004;10.902;2023-03-03T17:02:33;50.00;;;29.43;;
7977;SDS011;4034;48.004;10.902;2023-03-03T17:10:36;49.30;;;30.97;;
7977;SDS011;4034;48.004;10.902;2023-03-03T17:13:16;51.47;;;29.87;;
7977;SDS011;4034;48.004;10.902;2023-03-03T17:15:52;55.97;;;30.20;;
7977;SDS011;4034;48.004;10.902;2023-03-03T17:21:11;46.30;;;30.00;;
7977;SDS011;4034;48.004;10.902;2023-03-03T17:26:24;53.20;;;30.63;;
7977;SDS011;4034;48.004;10.902;2023-03-03T17:31:28;51.60;;;29.53;;
7977;SDS011;4034;48.004;10.902;2023-03-03T17:34:06;62.67;;;31.20;;
7977;SDS011;4034;48.004;10.902;2023-03-03T17:47:22;65.70;;;35.50;;
7977;SDS011;4034;48.004;10.902;2023-03-03T17:50:05;54.33;;;30.50;;
7977;SDS011;4034;48.004;10.902;2023-03-03T17:57:49;71.17;;;35.10;;
7977;SDS011;4034;48.004;10.902;2023-03-03T18:03:09;61.20;;;35.03;;
7977;SDS011;4034;48.004;10.902;2023-03-03T18:20:56;70.07;;;36.20;;
7977;SDS011;4034;48.004;10.902;2023-03-03T18:23:40;69.03;;;36.17;;
7977;SDS011;4034;48.004;10.902;2023-03-03T18:28:52;65.20;;;32.80;;
7977;SDS011;4034;48.004;10.902;2023-03-03T18:31:30;56.20;;;30.33;;
7977;SDS011;4034;48.004;10.902;2023-03-03T18:34:07;58.77;;;31.17;;
7977;SDS011;4034;48.004;10.902;2023-03-03T18:36:38;66.43;;;34.10;;
7977;SDS011;4034;48.004;10.902;2023-03-03T18:39:05;66.57;;;34.47;;
7977;SDS011;4034;48.004;10.902;2023-03-03T18:41:34;57.23;;;34.60;;
7977;SDS011;4034;48.004;10.902;2023-03-03T18:44:27;63.87;;;33.70;;
7977;SDS011;4034;48.004;10.902;2023-03-03T18:46:54;70.53;;;34.70;;
7977;SDS011;4034;48.004;10.902;2023-03-03T18:52:23;62.73;;;33.67;;
7977;SDS011;4034;48.004;10.902;2023-03-03T18:57:37;73.80;;;35.43;;
7977;SDS011;4034;48.004;10.902;2023-03-03T19:00:26;60.90;;;32.53;;
7977;SDS011;4034;48.004;10.902;2023-03-03T19:02:50;63.77;;;35.00;;
7977;SDS011;4034;48.004;10.902;2023-03-03T19:05:25;66.07;;;35.13;;
7977;SDS011;4034;48.004;10.902;2023-03-03T19:12:47;73.43;;;37.30;;
7977;SDS011;4034;48.004;10.902;2023-03-03T19:18:18;73.37;;;35.80;;
7977;SDS011;4034;48.004;10.902;2023-03-03T19:20:55;72.70;;;35.73;;
7977;SDS011;4034;48.004;10.902;2023-03-03T19:28:43;70.03;;;35.30;;
7977;SDS011;4034;48.004;10.902;2023-03-03T19:32:01;78.30;;;36.80;;
7977;SDS011;4034;48.004;10.902;2023-03-03T19:34:34;84.40;;;38.43;;
7977;SDS011;4034;48.004;10.902;2023-03-03T19:45:03;76.33;;;40.60;;
7977;SDS011;4034;48.004;10.902;2023-03-03T19:55:39;98.00;;;46.57;;
7977;SDS011;4034;48.004;10.902;2023-03-03T20:05:48;67.63;;;36.77;;
7977;SDS011;4034;48.004;10.902;2023-03-03T20:10:43;87.03;;;40.87;;
7977;SDS011;4034;48.004;10.902;2023-03-03T20:33:46;90.23;;;38.63;;
7977;SDS011;4034;48.004;10.902;2023-03-03T20:41:45;82.53;;;37.73;;
7977;SDS011;4034;48.004;10.902;2023-03-03T20:47:09;90.77;;;37.13;;
7977;SDS011;4034;48.004;10.902;2023-03-03T20:57:40;95.63;;;39.47;;
7977;SDS011;4034;48.004;10.902;2023-03-03T21:00:18;83.97;;;38.20;;
7977;SDS011;4034;48.004;10.902;2023-03-03T21:03:32;101.77;;;40.17;;
7977;SDS011;4034;48.004;10.902;2023-03-03T21:05:32;77.60;;;38.07;;
7977;SDS011;4034;48.004;10.902;2023-03-03T21:08:02;95.10;;;40.33;;
7977;SDS011;4034;48.004;10.902;2023-03-03T21:10:30;73.43;;;37.40;;